This is the latest recevied weather packets stored in our database for station/object CE1JFB-10. If no packets are shown the sender has not sent any weather packets the latest 10 day(s).
| Time | Temp. | Humidity | Pressure | Rain* | Wind** | Luminosity | Snow |
|---|---|---|---|---|---|---|---|
| 1787616249 | 22.22° C | 61% | 1015.4 hPa | - | - | - | - |
| 1787612649 | 23.33° C | 56% | 1014.7 hPa | - | - | - | - |
| 1787609049 | 22.78° C | 60% | 1014.2 hPa | - | - | - | - |
| 1787605449 | 23.89° C | 56% | 1013.2 hPa | - | - | - | - |
| 1787601849 | 23.33° C | 54% | 1012.8 hPa | - | - | - | - |
| 1787598249 | 25° C | 51% | 1012.7 hPa | - | - | - | - |
| 1787594649 | 25° C | 53% | 1012.5 hPa | - | - | - | - |
| 1787591049 | 25° C | 54% | 1012.7 hPa | - | - | - | - |
| 1787587449 | 22.22° C | 62% | 1013.4 hPa | - | - | - | - |
| 1787583848 | 22.22° C | 61% | 1014.3 hPa | - | - | - | - |
| 1787580248 | 21.67° C | 65% | 1014.9 hPa | - | - | - | - |
| 1787576648 | 21.11° C | 67% | 1015.3 hPa | - | - | - | - |
| 1787573048 | 20.56° C | 68% | 1015 hPa | - | - | - | - |
| 1787569448 | 20.56° C | 68% | 1014.4 hPa | - | - | - | - |
| 1787565848 | 20.56° C | 68% | 1013.7 hPa | - | - | - | - |
| 1787562248 | 20.56° C | 68% | 1013.4 hPa | - | - | - | - |
| 1787558647 | 20.56° C | 68% | 1013.3 hPa | - | - | - | - |
| 1787555047 | 20.56° C | 68% | 1012.8 hPa | - | - | - | - |
| 1787551447 | 21.11° C | 68% | 1013.2 hPa | - | - | - | - |
| 1787547847 | 21.11° C | 69% | 1013.8 hPa | - | - | - | - |
| 1787544247 | 21.11° C | 68% | 1013.4 hPa | - | - | - | - |
| 1787540647 | 21.11° C | 69% | 1012.7 hPa | - | - | - | - |
| 1787537047 | 21.67° C | 56% | 1010.9 hPa | - | - | - | - |
| 1787533447 | 20.56° C | 59% | 1011.3 hPa | - | - | - | - |
| 1787529847 | 20° C | 69% | 1015.4 hPa | - | - | - | - |
* Rain since midnight (hover to see other rain measurements)
** Current wind speed in m/s (hover to see current wind gust speed)